createdAt,value
2022-10-21T00:00:51.458Z,12.81
2022-10-21T00:03:19.614Z,12.76
2022-10-21T00:05:47.615Z,12.67
2022-10-21T00:08:15.786Z,12.68
2022-10-21T00:10:43.155Z,12.75
2022-10-21T00:13:10.554Z,12.75
2022-10-21T00:15:37.725Z,12.75
2022-10-21T00:18:04.894Z,12.74
2022-10-21T00:20:33.731Z,12.77
2022-10-21T00:23:03.231Z,12.76
2022-10-21T00:25:30.356Z,12.75
2022-10-21T00:27:57.753Z,12.77
2022-10-21T00:30:24.858Z,12.78
2022-10-21T00:32:51.942Z,12.73
2022-10-21T00:35:19.022Z,12.73
2022-10-21T00:37:46.145Z,12.75
2022-10-21T00:40:14.430Z,12.79
2022-10-21T00:42:45.521Z,12.82
2022-10-21T00:45:24.311Z,12.86
2022-10-21T00:47:57.342Z,12.87
2022-10-21T00:50:38.736Z,12.90
2022-10-21T00:53:13.457Z,12.84
2022-10-21T00:55:46.543Z,12.97
2022-10-21T00:58:14.014Z,12.91
2022-10-21T01:00:41.199Z,12.82
2022-10-21T01:03:08.569Z,12.76
2022-10-21T01:05:39.068Z,12.63
2022-10-21T01:08:06.291Z,12.58
2022-10-21T01:10:33.871Z,12.59
2022-10-21T01:13:00.902Z,12.60
2022-10-21T01:15:45.641Z,12.61
2022-10-21T01:18:27.294Z,12.58
2022-10-21T01:21:08.330Z,12.52
2022-10-21T01:24:00.316Z,12.45
2022-10-21T01:26:36.211Z,12.49
2022-10-21T01:29:43.843Z,12.49
2022-10-21T01:32:32.435Z,12.39
2022-10-21T01:35:12.587Z,12.31
2022-10-21T01:38:01.223Z,12.28
2022-10-21T01:40:37.618Z,12.21
2022-10-21T01:43:16.952Z,12.16
2022-10-21T01:45:57.711Z,12.13
2022-10-21T01:48:30.787Z,12.11
2022-10-21T01:51:07.298Z,12.12
2022-10-21T01:53:43.604Z,12.11
2022-10-21T01:56:12.962Z,12.09
2022-10-21T01:58:44.237Z,12.11
2022-10-21T02:01:13.857Z,12.02
2022-10-21T02:03:45.754Z,12.03
2022-10-21T02:06:14.135Z,12.08
2022-10-21T02:08:42.789Z,12.05
2022-10-21T02:11:11.909Z,12.14
2022-10-21T02:13:48.450Z,12.16
2022-10-21T02:16:19.228Z,12.14
2022-10-21T02:18:46.325Z,12.19
2022-10-21T02:21:19.052Z,12.14
2022-10-21T02:24:02.851Z,12.12
2022-10-21T02:26:30.024Z,12.15
2022-10-21T02:28:58.907Z,12.17
2022-10-21T02:31:39.642Z,12.18
2022-10-21T02:34:15.807Z,12.18
2022-10-21T02:36:50.258Z,12.18
2022-10-21T02:39:25.344Z,12.22
2022-10-21T02:41:55.330Z,12.18
2022-10-21T02:44:22.762Z,12.19
2022-10-21T02:46:50.495Z,12.24
2022-10-21T02:49:17.654Z,12.29
2022-10-21T02:51:45.535Z,12.35
2022-10-21T02:54:13.837Z,12.42
2022-10-21T02:56:40.949Z,12.47
2022-10-21T02:59:08.423Z,12.50
2022-10-21T03:01:35.592Z,12.57
2022-10-21T03:04:02.758Z,12.65
2022-10-21T03:06:29.862Z,12.70
2022-10-21T03:08:57.101Z,12.71
2022-10-21T03:11:24.248Z,12.80
2022-10-21T03:13:51.346Z,12.84
2022-10-21T03:18:50.513Z,12.85
2022-10-21T03:21:17.616Z,12.88
2022-10-21T03:23:44.719Z,12.94
2022-10-21T03:26:11.879Z,12.94
2022-10-21T03:28:39.519Z,12.98
2022-10-21T03:31:06.648Z,13.00
2022-10-21T03:33:33.745Z,13.07
2022-10-21T03:36:00.867Z,13.13
2022-10-21T03:38:28.009Z,13.18
2022-10-21T03:40:55.218Z,13.17
2022-10-21T03:43:22.362Z,13.22
2022-10-21T03:45:49.503Z,13.28
2022-10-21T03:48:17.527Z,13.28
2022-10-21T03:50:44.641Z,13.36
2022-10-21T03:53:24.359Z,13.40
2022-10-21T03:55:58.858Z,13.44
2022-10-21T03:58:25.967Z,13.39
2022-10-21T04:00:53.532Z,13.39
2022-10-21T04:03:20.825Z,13.43
2022-10-21T04:05:47.970Z,13.39
2022-10-21T04:08:15.098Z,13.39
2022-10-21T04:10:42.226Z,13.42
2022-10-21T04:13:09.350Z,13.44
2022-10-21T04:15:36.577Z,13.44
2022-10-21T04:18:03.778Z,13.43
2022-10-21T04:20:30.894Z,13.33
2022-10-21T04:22:58.003Z,13.29
2022-10-21T04:25:25.159Z,13.32
2022-10-21T04:27:52.331Z,13.32
2022-10-21T04:30:19.423Z,13.35
2022-10-21T04:32:47.128Z,13.38
2022-10-21T04:35:14.208Z,13.36
2022-10-21T04:37:41.315Z,13.39
2022-10-21T04:40:09.191Z,13.38
2022-10-21T04:42:36.453Z,13.38
2022-10-21T04:45:03.909Z,13.34
2022-10-21T04:47:31.327Z,13.34
2022-10-21T04:49:58.439Z,13.41
2022-10-21T04:52:25.532Z,13.34
2022-10-21T04:54:52.695Z,13.38
2022-10-21T04:57:20.453Z,13.44
2022-10-21T04:59:47.625Z,13.44
2022-10-21T05:02:14.803Z,13.40
2022-10-21T05:04:41.898Z,13.47
2022-10-21T05:07:09.127Z,13.49
2022-10-21T05:09:36.238Z,13.42
2022-10-21T05:12:03.857Z,13.25
2022-10-21T05:14:31.000Z,13.26
2022-10-21T05:16:58.169Z,13.30
2022-10-21T05:19:28.986Z,13.31
2022-10-21T05:21:58.790Z,13.24
2022-10-21T05:24:26.173Z,13.23
2022-10-21T05:26:53.292Z,13.25
2022-10-21T05:29:20.383Z,13.17
2022-10-21T05:31:47.583Z,13.19
2022-10-21T05:34:14.675Z,13.19
2022-10-21T05:36:42.362Z,13.17
2022-10-21T05:39:11.446Z,13.22
2022-10-21T05:41:40.231Z,13.21
2022-10-21T05:44:09.171Z,13.15
2022-10-21T05:46:36.299Z,13.11
2022-10-21T05:49:03.724Z,13.15
2022-10-21T05:51:30.836Z,13.12
2022-10-21T05:53:58.214Z,13.11
2022-10-21T05:56:25.350Z,13.13
2022-10-21T05:58:52.520Z,13.19
2022-10-21T06:01:19.692Z,13.23
2022-10-21T06:03:47.071Z,13.26
2022-10-21T06:06:14.166Z,13.30
2022-10-21T06:08:41.325Z,13.31
2022-10-21T06:11:14.168Z,13.34
2022-10-21T06:13:41.571Z,13.39
2022-10-21T06:16:10.125Z,13.37
2022-10-21T06:18:37.713Z,13.45
2022-10-21T06:21:05.638Z,13.48
2022-10-21T06:23:33.557Z,13.58
2022-10-21T06:26:10.395Z,13.59
2022-10-21T06:28:39.111Z,13.58
2022-10-21T06:31:07.862Z,13.67
2022-10-21T06:33:35.589Z,13.59
2022-10-21T06:36:02.790Z,13.62
2022-10-21T06:38:32.143Z,13.65
2022-10-21T06:41:07.891Z,13.70
2022-10-21T06:43:38.111Z,13.74
2022-10-21T06:46:08.964Z,13.82
2022-10-21T06:48:36.263Z,13.83
2022-10-21T06:51:07.395Z,13.82
2022-10-21T06:53:38.951Z,13.76
2022-10-21T06:56:10.036Z,13.80
2022-10-21T06:58:39.768Z,13.87
2022-10-21T07:01:16.661Z,13.90
2022-10-21T07:03:55.334Z,13.88
2022-10-21T07:06:22.727Z,13.99
2022-10-21T07:08:57.933Z,13.97
2022-10-21T07:11:27.580Z,14.01
2022-10-21T07:13:54.877Z,14.10
2022-10-21T07:16:31.344Z,14.16
2022-10-21T07:18:58.587Z,14.08
2022-10-21T07:21:27.557Z,14.11
2022-10-21T07:23:57.914Z,14.23
2022-10-21T07:26:29.033Z,14.23
2022-10-21T07:28:58.263Z,14.29
2022-10-21T07:31:26.721Z,14.39
2022-10-21T07:33:54.221Z,14.43
2022-10-21T07:36:24.401Z,14.48
2022-10-21T07:38:53.857Z,14.46
2022-10-21T07:41:45.787Z,14.54
2022-10-21T07:44:14.071Z,14.60
2022-10-21T07:46:43.058Z,14.66
2022-10-21T07:49:11.695Z,14.62
2022-10-21T07:51:40.002Z,14.73
2022-10-21T07:54:07.814Z,14.87
2022-10-21T07:56:38.478Z,14.89
2022-10-21T07:59:10.192Z,14.95
2022-10-21T08:01:44.321Z,15.00
2022-10-21T08:04:15.399Z,15.03
2022-10-21T08:06:44.039Z,15.07
2022-10-21T08:09:11.732Z,15.17
2022-10-21T08:11:38.998Z,15.31
2022-10-21T08:14:08.672Z,15.23
2022-10-21T08:16:36.467Z,15.29
2022-10-21T08:19:04.649Z,15.39
2022-10-21T08:21:31.821Z,15.37
2022-10-21T08:24:02.261Z,15.50
2022-10-21T08:26:29.657Z,15.59
2022-10-21T08:31:28.764Z,15.58
2022-10-21T08:33:55.942Z,15.65
2022-10-21T08:36:25.885Z,15.80
2022-10-21T08:38:54.043Z,15.82
2022-10-21T08:41:31.204Z,15.88
2022-10-21T08:44:16.659Z,15.94
2022-10-21T08:47:24.905Z,16.13
2022-10-21T08:50:00.520Z,16.15
2022-10-21T08:52:49.606Z,16.06
2022-10-21T08:55:34.227Z,16.01
2022-10-21T08:58:02.289Z,16.16
2022-10-21T09:01:05.711Z,16.09
2022-10-21T09:03:54.325Z,16.15
2022-10-21T09:06:44.543Z,16.19
2022-10-21T09:09:24.252Z,16.25
2022-10-21T09:12:06.030Z,16.12
2022-10-21T09:14:50.201Z,16.27
2022-10-21T09:17:46.941Z,16.24
2022-10-21T09:20:45.012Z,16.47
2022-10-21T09:23:14.766Z,16.39
2022-10-21T09:26:01.946Z,16.41
2022-10-21T09:28:30.515Z,16.37
2022-10-21T09:31:00.857Z,16.39
2022-10-21T09:33:31.893Z,16.41
2022-10-21T09:36:04.650Z,16.43
2022-10-21T09:38:57.907Z,16.50
2022-10-21T09:41:33.039Z,16.45
2022-10-21T09:44:00.136Z,16.55
2022-10-21T09:46:27.437Z,16.60
2022-10-21T09:51:45.359Z,16.67
2022-10-21T09:54:19.870Z,16.66
2022-10-21T09:56:57.049Z,16.74
2022-10-21T09:59:29.107Z,16.73
2022-10-21T10:02:07.675Z,16.70
2022-10-21T10:04:35.962Z,16.82
2022-10-21T10:07:28.085Z,16.86
2022-10-21T10:09:55.219Z,16.83
2022-10-21T10:12:25.346Z,16.76
2022-10-21T10:14:52.805Z,16.74
2022-10-21T10:17:31.903Z,16.88
2022-10-21T10:20:04.895Z,16.96
2022-10-21T10:22:32.948Z,16.91
2022-10-21T10:25:12.030Z,16.76
2022-10-21T10:27:48.206Z,16.82
2022-10-21T10:30:16.892Z,16.93
2022-10-21T10:32:46.350Z,17.05
2022-10-21T10:35:33.973Z,17.01
2022-10-21T10:38:02.738Z,16.98
2022-10-21T10:40:39.570Z,16.97
2022-10-21T10:43:32.004Z,17.03
2022-10-21T10:46:02.035Z,17.05
2022-10-21T10:48:35.076Z,17.17
2022-10-21T10:51:07.076Z,17.13
2022-10-21T10:53:35.700Z,17.02
2022-10-21T10:56:24.491Z,16.99
2022-10-21T10:59:17.062Z,17.01
2022-10-21T11:02:02.535Z,16.97
2022-10-21T11:04:56.622Z,17.03
2022-10-21T11:07:45.159Z,16.96
2022-10-21T11:10:35.975Z,17.06
2022-10-21T11:13:11.150Z,17.06
2022-10-21T11:15:44.687Z,17.19
2022-10-21T11:18:27.586Z,17.27
2022-10-21T11:20:59.779Z,17.27
2022-10-21T11:23:29.623Z,17.35
2022-10-21T11:26:21.431Z,17.34
2022-10-21T11:29:01.378Z,17.52
2022-10-21T11:32:13.548Z,17.53
2022-10-21T11:35:05.192Z,17.53
2022-10-21T11:37:53.642Z,17.62
2022-10-21T11:40:37.494Z,17.74
2022-10-21T11:43:16.582Z,17.81
2022-10-21T11:45:58.297Z,17.71
2022-10-21T11:48:31.151Z,17.52
2022-10-21T11:51:16.468Z,17.55
2022-10-21T11:54:01.946Z,17.59
2022-10-21T11:56:50.570Z,17.45
2022-10-21T11:59:36.186Z,17.49
2022-10-21T12:02:33.331Z,17.57
2022-10-21T12:05:18.703Z,17.40
2022-10-21T12:07:51.842Z,17.54
2022-10-21T12:10:34.131Z,17.46
2022-10-21T12:13:13.528Z,17.45
2022-10-21T12:15:50.152Z,17.39
2022-10-21T12:18:20.558Z,17.36
2022-10-21T12:20:50.159Z,17.35
2022-10-21T12:23:22.054Z,17.26
2022-10-21T12:25:49.090Z,17.26
2022-10-21T12:28:35.685Z,17.29
2022-10-21T12:31:28.865Z,17.32
2022-10-21T12:33:56.948Z,17.28
2022-10-21T12:36:24.093Z,17.35
2022-10-21T12:38:56.463Z,17.38
2022-10-21T12:41:23.488Z,17.25
2022-10-21T12:44:02.972Z,17.38
2022-10-21T12:46:40.323Z,17.42
2022-10-21T12:49:10.573Z,17.48
2022-10-21T12:51:39.188Z,17.48
2022-10-21T12:54:13.423Z,17.40
2022-10-21T12:56:47.702Z,17.50
2022-10-21T12:59:28.438Z,17.40
2022-10-21T13:02:04.625Z,17.35
2022-10-21T13:04:31.709Z,17.34
2022-10-21T13:07:19.349Z,17.28
2022-10-21T13:09:50.745Z,17.28
2022-10-21T13:12:29.252Z,17.14
2022-10-21T13:15:22.186Z,17.16
2022-10-21T13:17:55.094Z,17.17
2022-10-21T13:20:22.187Z,17.14
2022-10-21T13:23:03.436Z,17.19
2022-10-21T13:25:35.222Z,17.23
2022-10-21T13:28:14.003Z,17.11
2022-10-21T13:30:58.526Z,17.13
2022-10-21T13:33:29.709Z,17.12
2022-10-21T13:36:24.970Z,17.09
2022-10-21T13:38:55.382Z,17.01
2022-10-21T13:41:27.118Z,17.03
2022-10-21T13:44:06.331Z,17.04
2022-10-21T13:46:43.603Z,17.03
2022-10-21T13:49:32.934Z,16.87
2022-10-21T13:52:00.042Z,16.89
2022-10-21T13:54:34.863Z,16.91
2022-10-21T13:57:08.351Z,16.91
2022-10-21T13:59:35.338Z,16.92
2022-10-21T14:02:03.816Z,16.89
2022-10-21T14:04:33.490Z,16.88
2022-10-21T14:07:04.686Z,16.87
2022-10-21T14:09:45.265Z,16.86
2022-10-21T14:12:21.854Z,16.89
2022-10-21T14:14:51.690Z,16.92
2022-10-21T14:17:22.490Z,16.92
2022-10-21T14:20:05.481Z,16.93
2022-10-21T14:22:33.229Z,16.99
2022-10-21T14:25:04.484Z,17.00
2022-10-21T14:27:34.153Z,16.98
2022-10-21T14:30:04.253Z,16.88
2022-10-21T14:32:32.078Z,16.91
2022-10-21T14:35:11.283Z,16.96
2022-10-21T14:37:48.548Z,16.89
2022-10-21T14:40:26.189Z,16.91
2022-10-21T14:42:55.083Z,16.89
2022-10-21T14:45:34.762Z,16.88
2022-10-21T14:48:11.694Z,16.86
2022-10-21T14:50:41.407Z,16.81
2022-10-21T14:53:19.182Z,16.85
2022-10-21T14:55:48.574Z,16.68
2022-10-21T14:58:22.876Z,16.73
2022-10-21T15:01:07.121Z,16.72
2022-10-21T15:03:38.580Z,16.73
2022-10-21T15:06:17.855Z,16.71
2022-10-21T15:09:10.748Z,16.65
2022-10-21T15:11:42.356Z,16.63
2022-10-21T15:14:12.246Z,16.55
2022-10-21T15:16:53.579Z,16.50
2022-10-21T15:19:25.223Z,16.49
2022-10-21T15:22:01.557Z,16.48
2022-10-21T15:24:34.067Z,16.44
2022-10-21T15:27:02.290Z,16.42
2022-10-21T15:29:36.070Z,16.42
2022-10-21T15:32:05.845Z,16.38
2022-10-21T15:34:33.028Z,16.33
2022-10-21T15:37:00.512Z,16.32
2022-10-21T15:39:28.748Z,16.29
2022-10-21T15:41:57.506Z,16.26
2022-10-21T15:44:28.023Z,16.20
2022-10-21T15:47:00.262Z,16.18
2022-10-21T15:49:32.375Z,16.12
2022-10-21T15:52:00.210Z,16.08
2022-10-21T15:54:27.302Z,16.10
2022-10-21T15:56:55.278Z,16.06
2022-10-21T15:59:24.484Z,16.03
2022-10-21T16:01:52.500Z,16.03
2022-10-21T16:04:20.587Z,16.03
2022-10-21T16:06:49.555Z,16.00
2022-10-21T16:09:25.919Z,15.96
2022-10-21T16:11:59.223Z,15.95
2022-10-21T16:14:29.395Z,15.88
2022-10-21T16:17:00.648Z,15.89
2022-10-21T16:19:28.847Z,15.84
2022-10-21T16:21:56.649Z,15.82
2022-10-21T16:24:23.770Z,15.83
2022-10-21T16:26:51.076Z,15.82
2022-10-21T16:29:24.248Z,15.81
2022-10-21T16:31:52.045Z,15.77
2022-10-21T16:34:19.590Z,15.77
2022-10-21T16:36:46.769Z,15.77
2022-10-21T16:39:16.805Z,15.71
2022-10-21T16:41:43.935Z,15.72
2022-10-21T16:44:11.185Z,15.69
2022-10-21T16:46:56.494Z,15.72
2022-10-21T16:49:27.891Z,15.69
2022-10-21T16:51:57.381Z,15.69
2022-10-21T16:54:24.546Z,15.69
2022-10-21T16:56:54.878Z,15.66
2022-10-21T16:59:23.579Z,15.71
2022-10-21T17:01:51.527Z,15.67
2022-10-21T17:04:18.776Z,15.63
2022-10-21T17:06:45.887Z,15.67
2022-10-21T17:09:13.185Z,15.69
2022-10-21T17:11:42.246Z,15.61
2022-10-21T17:14:16.229Z,15.59
2022-10-21T17:16:45.299Z,15.55
2022-10-21T17:19:14.520Z,15.53
2022-10-21T17:21:41.763Z,15.45
2022-10-21T17:24:13.796Z,15.52
2022-10-21T17:26:41.404Z,15.55
2022-10-21T17:29:10.762Z,15.55
2022-10-21T17:31:40.834Z,15.55
2022-10-21T17:34:24.450Z,15.50
2022-10-21T17:36:51.704Z,15.46
2022-10-21T17:39:18.811Z,15.43
2022-10-21T17:44:18.413Z,15.44
2022-10-21T17:46:47.571Z,15.43
2022-10-21T17:49:15.148Z,15.45
2022-10-21T17:51:42.282Z,15.41
2022-10-21T17:54:10.141Z,15.39
2022-10-21T17:56:37.278Z,15.40
2022-10-21T17:59:04.503Z,15.45
2022-10-21T18:01:31.780Z,15.49
2022-10-21T18:04:02.022Z,15.48
2022-10-21T18:06:29.278Z,15.49
2022-10-21T18:08:58.127Z,15.48
2022-10-21T18:11:25.760Z,15.48
2022-10-21T18:13:55.238Z,15.48
2022-10-21T18:16:24.322Z,15.48
2022-10-21T18:18:55.227Z,15.50
2022-10-21T18:21:24.648Z,15.52
2022-10-21T18:23:53.453Z,15.53
2022-10-21T18:26:31.301Z,15.57
2022-10-21T18:29:03.018Z,15.59
2022-10-21T18:31:34.408Z,15.61
2022-10-21T18:34:03.939Z,15.63
2022-10-21T18:36:32.076Z,15.62
2022-10-21T18:39:01.150Z,15.67
2022-10-21T18:41:28.463Z,15.63
2022-10-21T18:44:01.207Z,15.62
2022-10-21T18:46:29.799Z,15.66
2022-10-21T18:48:57.795Z,15.71
2022-10-21T18:51:25.301Z,15.77
2022-10-21T18:53:53.378Z,15.85
2022-10-21T18:56:22.234Z,15.84
2022-10-21T18:58:50.078Z,15.80
2022-10-21T19:01:18.553Z,15.79
2022-10-21T19:03:45.954Z,15.79
2022-10-21T19:06:32.142Z,15.78
2022-10-21T19:09:01.156Z,15.84
2022-10-21T19:11:28.974Z,15.88
2022-10-21T19:13:56.331Z,15.85
2022-10-21T19:16:23.583Z,15.94
2022-10-21T19:18:51.274Z,16.05
2022-10-21T19:21:19.782Z,16.04
2022-10-21T19:23:47.029Z,16.05
2022-10-21T19:26:14.934Z,16.08
2022-10-21T19:28:42.193Z,16.10
2022-10-21T19:31:11.483Z,16.10
2022-10-21T19:33:39.214Z,16.12
2022-10-21T19:36:08.103Z,16.13
2022-10-21T19:38:50.804Z,16.16
2022-10-21T19:41:22.483Z,16.16
2022-10-21T19:43:53.126Z,16.22
2022-10-21T19:46:24.912Z,16.18
2022-10-21T19:48:53.654Z,16.16
2022-10-21T19:51:23.134Z,16.14
2022-10-21T19:53:51.245Z,16.11
2022-10-21T19:56:22.199Z,16.08
2022-10-21T19:58:54.698Z,16.07
2022-10-21T20:01:24.964Z,16.09
2022-10-21T20:03:53.398Z,16.08
2022-10-21T20:06:25.226Z,16.02
2022-10-21T20:08:58.107Z,15.98
2022-10-21T20:11:25.750Z,15.94
2022-10-21T20:13:52.927Z,15.89
2022-10-21T20:16:21.825Z,15.86
2022-10-21T20:18:49.584Z,15.96
2022-10-21T20:21:16.867Z,15.93
2022-10-21T20:23:44.053Z,15.86
2022-10-21T20:26:11.470Z,15.80
2022-10-21T20:28:38.867Z,15.80
2022-10-21T20:31:09.150Z,15.81
2022-10-21T20:33:40.344Z,15.84
2022-10-21T20:36:17.867Z,15.83
2022-10-21T20:38:46.099Z,15.80
2022-10-21T20:41:23.568Z,15.91
2022-10-21T20:43:51.864Z,15.88
2022-10-21T20:46:21.814Z,15.89
2022-10-21T20:48:50.488Z,15.86
2022-10-21T20:51:27.026Z,15.93
2022-10-21T20:53:57.313Z,15.95
2022-10-21T20:56:33.876Z,15.96
2022-10-21T20:59:01.638Z,15.99
2022-10-21T21:01:34.808Z,16.04
2022-10-21T21:04:08.361Z,16.04
2022-10-21T21:06:37.378Z,16.07
2022-10-21T21:11:51.934Z,15.90
2022-10-21T21:14:19.127Z,15.89
2022-10-21T21:16:46.277Z,15.89
2022-10-21T21:19:14.349Z,15.92
2022-10-21T21:21:41.662Z,15.91
2022-10-21T21:24:08.865Z,15.91
2022-10-21T21:26:38.458Z,16.00
2022-10-21T21:29:07.529Z,16.05
2022-10-21T21:31:37.090Z,16.12
2022-10-21T21:34:05.378Z,16.20
2022-10-21T21:36:32.800Z,16.29
2022-10-21T21:39:00.095Z,16.35
2022-10-21T21:41:27.298Z,16.41
2022-10-21T21:43:56.555Z,16.46
2022-10-21T21:46:24.971Z,16.55
2022-10-21T21:48:59.571Z,16.67
2022-10-21T21:51:29.362Z,16.71
2022-10-21T21:53:57.218Z,16.74
2022-10-21T21:56:25.362Z,16.82
2022-10-21T21:58:54.971Z,16.88
2022-10-21T22:01:25.398Z,16.95
2022-10-21T22:03:53.207Z,17.02
2022-10-21T22:06:22.768Z,17.04
2022-10-21T22:08:51.016Z,17.13
2022-10-21T22:11:22.455Z,17.18
2022-10-21T22:13:49.936Z,17.24
2022-10-21T22:16:18.678Z,17.28
2022-10-21T22:18:45.838Z,17.30
2022-10-21T22:21:16.560Z,17.33
2022-10-21T22:23:45.196Z,17.39
2022-10-21T22:26:13.611Z,17.42
2022-10-21T22:28:41.450Z,17.58
2022-10-21T22:31:12.040Z,17.60
2022-10-21T22:33:40.213Z,17.65
2022-10-21T22:36:08.082Z,17.74
2022-10-21T22:38:35.194Z,17.72
2022-10-21T22:41:06.123Z,17.72
2022-10-21T22:43:35.654Z,17.80
2022-10-21T22:46:09.706Z,17.81
2022-10-21T22:48:49.023Z,17.78
2022-10-21T22:51:16.142Z,17.78
2022-10-21T22:53:43.271Z,17.77
2022-10-21T22:56:10.436Z,17.75
2022-10-21T22:58:37.622Z,17.80
2022-10-21T23:01:09.678Z,17.77
2022-10-21T23:03:37.031Z,17.80
2022-10-21T23:06:04.459Z,17.79
2022-10-21T23:08:31.795Z,17.77
2022-10-21T23:10:58.979Z,17.74
2022-10-21T23:13:26.214Z,17.67
2022-10-21T23:15:53.322Z,17.69
2022-10-21T23:18:20.522Z,17.74
2022-10-21T23:20:47.697Z,17.72
2022-10-21T23:23:14.830Z,17.69
2022-10-21T23:25:41.937Z,17.82
2022-10-21T23:28:09.725Z,17.73
2022-10-21T23:30:38.273Z,17.70
2022-10-21T23:33:05.386Z,17.72
2022-10-21T23:35:32.867Z,17.67
2022-10-21T23:38:00.138Z,17.65
2022-10-21T23:40:28.185Z,17.66
2022-10-21T23:42:55.294Z,17.64
2022-10-21T23:45:22.540Z,17.57
2022-10-21T23:47:49.927Z,17.59
2022-10-21T23:50:17.157Z,17.65
2022-10-21T23:52:44.385Z,17.63
2022-10-21T23:55:11.498Z,17.60
2022-10-21T23:57:39.288Z,17.61
